sensor_id;sensor_type;location;lat;lon;timestamp;P1;durP1;ratioP1;P2;durP2;ratioP2
19691;SDS011;42748;50.016;19.890;2024-03-02T00:00:49;161.75;;;69.78;;
19691;SDS011;42748;50.016;19.890;2024-03-02T00:03:18;143.55;;;63.60;;
19691;SDS011;42748;50.016;19.890;2024-03-02T00:05:49;139.82;;;60.40;;
19691;SDS011;42748;50.016;19.890;2024-03-02T00:08:23;139.02;;;57.67;;
19691;SDS011;42748;50.016;19.890;2024-03-02T00:10:58;132.48;;;56.03;;
19691;SDS011;42748;50.016;19.890;2024-03-02T00:13:26;135.52;;;56.33;;
19691;SDS011;42748;50.016;19.890;2024-03-02T00:15:54;133.15;;;56.08;;
19691;SDS011;42748;50.016;19.890;2024-03-02T00:18:26;134.82;;;57.30;;
19691;SDS011;42748;50.016;19.890;2024-03-02T00:20:54;128.20;;;56.45;;
19691;SDS011;42748;50.016;19.890;2024-03-02T00:23:24;131.10;;;56.63;;
19691;SDS011;42748;50.016;19.890;2024-03-02T00:25:53;129.00;;;55.60;;
19691;SDS011;42748;50.016;19.890;2024-03-02T00:33:26;133.40;;;55.78;;
19691;SDS011;42748;50.016;19.890;2024-03-02T00:35:55;130.15;;;54.85;;
19691;SDS011;42748;50.016;19.890;2024-03-02T00:38:23;147.80;;;61.10;;
19691;SDS011;42748;50.016;19.890;2024-03-02T00:40:51;145.68;;;64.75;;
19691;SDS011;42748;50.016;19.890;2024-03-02T00:46:02;165.87;;;77.37;;
19691;SDS011;42748;50.016;19.890;2024-03-02T00:48:30;180.35;;;81.93;;
19691;SDS011;42748;50.016;19.890;2024-03-02T00:50:58;184.68;;;84.20;;
19691;SDS011;42748;50.016;19.890;2024-03-02T00:53:26;170.85;;;80.40;;
19691;SDS011;42748;50.016;19.890;2024-03-02T00:55:54;181.68;;;85.30;;
19691;SDS011;42748;50.016;19.890;2024-03-02T00:58:22;202.80;;;95.25;;
19691;SDS011;42748;50.016;19.890;2024-03-02T01:00:49;203.65;;;97.57;;
19691;SDS011;42748;50.016;19.890;2024-03-02T01:03:17;192.15;;;97.45;;
19691;SDS011;42748;50.016;19.890;2024-03-02T01:05:46;208.43;;;104.70;;
19691;SDS011;42748;50.016;19.890;2024-03-02T01:08:13;214.15;;;106.05;;
19691;SDS011;42748;50.016;19.890;2024-03-02T01:10:41;216.95;;;103.95;;
19691;SDS011;42748;50.016;19.890;2024-03-02T01:13:09;212.85;;;103.00;;
19691;SDS011;42748;50.016;19.890;2024-03-02T01:15:37;204.40;;;98.60;;
19691;SDS011;42748;50.016;19.890;2024-03-02T01:18:05;204.50;;;97.35;;
19691;SDS011;42748;50.016;19.890;2024-03-02T01:20:33;188.75;;;90.50;;
19691;SDS011;42748;50.016;19.890;2024-03-02T01:23:00;194.70;;;92.03;;
19691;SDS011;42748;50.016;19.890;2024-03-02T01:25:28;185.00;;;85.93;;
19691;SDS011;42748;50.016;19.890;2024-03-02T01:27:56;178.90;;;84.93;;
19691;SDS011;42748;50.016;19.890;2024-03-02T01:30:23;169.90;;;81.57;;
19691;SDS011;42748;50.016;19.890;2024-03-02T01:32:51;173.02;;;81.78;;
19691;SDS011;42748;50.016;19.890;2024-03-02T01:35:19;172.32;;;82.85;;
19691;SDS011;42748;50.016;19.890;2024-03-02T01:37:47;167.20;;;80.30;;
19691;SDS011;42748;50.016;19.890;2024-03-02T01:40:15;165.63;;;78.43;;
19691;SDS011;42748;50.016;19.890;2024-03-02T01:42:42;170.43;;;81.65;;
19691;SDS011;42748;50.016;19.890;2024-03-02T01:45:10;166.85;;;80.70;;
19691;SDS011;42748;50.016;19.890;2024-03-02T01:47:38;171.05;;;79.82;;
19691;SDS011;42748;50.016;19.890;2024-03-02T01:50:07;160.57;;;75.03;;
19691;SDS011;42748;50.016;19.890;2024-03-02T01:52:35;157.02;;;72.47;;
19691;SDS011;42748;50.016;19.890;2024-03-02T01:55:03;151.45;;;68.45;;
19691;SDS011;42748;50.016;19.890;2024-03-02T01:57:31;144.25;;;64.70;;
19691;SDS011;42748;50.016;19.890;2024-03-02T01:59:59;138.35;;;63.75;;
19691;SDS011;42748;50.016;19.890;2024-03-02T02:02:37;133.70;;;59.65;;
19691;SDS011;42748;50.016;19.890;2024-03-02T02:05:04;129.55;;;60.28;;
19691;SDS011;42748;50.016;19.890;2024-03-02T02:07:32;122.57;;;55.70;;
19691;SDS011;42748;50.016;19.890;2024-03-02T02:10:01;121.97;;;56.20;;
19691;SDS011;42748;50.016;19.890;2024-03-02T02:12:29;127.80;;;56.58;;
19691;SDS011;42748;50.016;19.890;2024-03-02T02:14:57;123.60;;;55.45;;
19691;SDS011;42748;50.016;19.890;2024-03-02T02:17:24;117.00;;;55.40;;
19691;SDS011;42748;50.016;19.890;2024-03-02T02:19:52;116.05;;;54.65;;
19691;SDS011;42748;50.016;19.890;2024-03-02T02:22:20;130.40;;;57.80;;
19691;SDS011;42748;50.016;19.890;2024-03-02T02:24:47;129.20;;;57.80;;
19691;SDS011;42748;50.016;19.890;2024-03-02T02:27:15;120.45;;;54.97;;
19691;SDS011;42748;50.016;19.890;2024-03-02T02:29:42;127.90;;;58.88;;
19691;SDS011;42748;50.016;19.890;2024-03-02T02:32:10;147.23;;;64.22;;
19691;SDS011;42748;50.016;19.890;2024-03-02T02:34:38;157.02;;;76.97;;
19691;SDS011;42748;50.016;19.890;2024-03-02T02:37:06;178.40;;;89.25;;
19691;SDS011;42748;50.016;19.890;2024-03-02T02:39:34;179.80;;;89.80;;
19691;SDS011;42748;50.016;19.890;2024-03-02T02:42:01;191.77;;;94.03;;
19691;SDS011;42748;50.016;19.890;2024-03-02T02:44:29;194.43;;;94.57;;
19691;SDS011;42748;50.016;19.890;2024-03-02T02:46:57;184.77;;;92.53;;
19691;SDS011;42748;50.016;19.890;2024-03-02T02:49:24;188.70;;;92.63;;
19691;SDS011;42748;50.016;19.890;2024-03-02T02:51:52;181.30;;;89.57;;
19691;SDS011;42748;50.016;19.890;2024-03-02T02:54:20;188.60;;;88.07;;
19691;SDS011;42748;50.016;19.890;2024-03-02T02:56:48;184.80;;;88.87;;
19691;SDS011;42748;50.016;19.890;2024-03-02T02:59:16;179.15;;;87.28;;
19691;SDS011;42748;50.016;19.890;2024-03-02T03:01:43;184.18;;;87.18;;
19691;SDS011;42748;50.016;19.890;2024-03-02T03:04:11;180.77;;;85.67;;
19691;SDS011;42748;50.016;19.890;2024-03-02T03:06:39;171.37;;;82.43;;
19691;SDS011;42748;50.016;19.890;2024-03-02T03:09:07;166.80;;;76.67;;
19691;SDS011;42748;50.016;19.890;2024-03-02T03:11:37;164.85;;;77.63;;
19691;SDS011;42748;50.016;19.890;2024-03-02T03:14:05;159.30;;;73.95;;
19691;SDS011;42748;50.016;19.890;2024-03-02T03:16:33;166.55;;;74.65;;
19691;SDS011;42748;50.016;19.890;2024-03-02T03:19:01;156.03;;;70.67;;
19691;SDS011;42748;50.016;19.890;2024-03-02T03:21:28;146.52;;;68.45;;
19691;SDS011;42748;50.016;19.890;2024-03-02T03:23:56;142.57;;;66.00;;
19691;SDS011;42748;50.016;19.890;2024-03-02T03:26:24;144.50;;;64.93;;
19691;SDS011;42748;50.016;19.890;2024-03-02T03:28:51;144.40;;;65.90;;
19691;SDS011;42748;50.016;19.890;2024-03-02T03:31:19;132.60;;;62.70;;
19691;SDS011;42748;50.016;19.890;2024-03-02T03:33:47;144.27;;;66.17;;
19691;SDS011;42748;50.016;19.890;2024-03-02T03:36:15;133.83;;;63.17;;
19691;SDS011;42748;50.016;19.890;2024-03-02T03:38:43;142.47;;;64.43;;
19691;SDS011;42748;50.016;19.890;2024-03-02T03:41:10;134.07;;;63.37;;
19691;SDS011;42748;50.016;19.890;2024-03-02T03:43:38;143.03;;;63.93;;
19691;SDS011;42748;50.016;19.890;2024-03-02T03:46:06;127.70;;;60.07;;
19691;SDS011;42748;50.016;19.890;2024-03-02T03:48:34;125.77;;;58.50;;
19691;SDS011;42748;50.016;19.890;2024-03-02T03:51:02;123.70;;;55.20;;
19691;SDS011;42748;50.016;19.890;2024-03-02T03:53:29;115.80;;;53.73;;
19691;SDS011;42748;50.016;19.890;2024-03-02T03:55:57;113.80;;;53.27;;
19691;SDS011;42748;50.016;19.890;2024-03-02T03:58:24;116.67;;;53.00;;
19691;SDS011;42748;50.016;19.890;2024-03-02T04:00:52;120.50;;;52.77;;
19691;SDS011;42748;50.016;19.890;2024-03-02T04:03:20;109.67;;;51.63;;
19691;SDS011;42748;50.016;19.890;2024-03-02T04:05:48;119.43;;;52.40;;
19691;SDS011;42748;50.016;19.890;2024-03-02T04:08:15;121.17;;;55.10;;
19691;SDS011;42748;50.016;19.890;2024-03-02T04:10:43;121.70;;;57.13;;
19691;SDS011;42748;50.016;19.890;2024-03-02T04:13:11;131.53;;;59.13;;
19691;SDS011;42748;50.016;19.890;2024-03-02T04:15:39;141.77;;;63.40;;
19691;SDS011;42748;50.016;19.890;2024-03-02T04:18:07;141.43;;;66.90;;
19691;SDS011;42748;50.016;19.890;2024-03-02T04:20:35;157.80;;;74.23;;
19691;SDS011;42748;50.016;19.890;2024-03-02T04:23:03;188.70;;;91.90;;
19691;SDS011;42748;50.016;19.890;2024-03-02T04:25:30;191.73;;;92.33;;
19691;SDS011;42748;50.016;19.890;2024-03-02T04:27:58;204.13;;;97.73;;
19691;SDS011;42748;50.016;19.890;2024-03-02T04:30:26;202.87;;;98.37;;
19691;SDS011;42748;50.016;19.890;2024-03-02T04:32:54;204.50;;;98.23;;
19691;SDS011;42748;50.016;19.890;2024-03-02T04:35:22;208.90;;;98.03;;
19691;SDS011;42748;50.016;19.890;2024-03-02T04:37:49;202.57;;;97.57;;
19691;SDS011;42748;50.016;19.890;2024-03-02T04:40:17;200.00;;;94.87;;
19691;SDS011;42748;50.016;19.890;2024-03-02T04:42:45;206.63;;;96.10;;
19691;SDS011;42748;50.016;19.890;2024-03-02T04:45:13;186.90;;;87.23;;
19691;SDS011;42748;50.016;19.890;2024-03-02T04:47:41;193.57;;;89.83;;
19691;SDS011;42748;50.016;19.890;2024-03-02T04:50:08;183.10;;;85.20;;
19691;SDS011;42748;50.016;19.890;2024-03-02T04:52:36;184.60;;;84.73;;
19691;SDS011;42748;50.016;19.890;2024-03-02T04:55:05;181.33;;;81.57;;
19691;SDS011;42748;50.016;19.890;2024-03-02T04:57:51;166.27;;;76.37;;
19691;SDS011;42748;50.016;19.890;2024-03-02T05:00:21;171.50;;;76.70;;
19691;SDS011;42748;50.016;19.890;2024-03-02T05:02:49;163.07;;;74.50;;
19691;SDS011;42748;50.016;19.890;2024-03-02T05:05:17;157.23;;;71.87;;
19691;SDS011;42748;50.016;19.890;2024-03-02T05:07:45;148.77;;;70.00;;
19691;SDS011;42748;50.016;19.890;2024-03-02T05:10:13;158.97;;;69.73;;
19691;SDS011;42748;50.016;19.890;2024-03-02T05:12:41;135.57;;;62.87;;
19691;SDS011;42748;50.016;19.890;2024-03-02T05:15:13;139.47;;;60.93;;
19691;SDS011;42748;50.016;19.890;2024-03-02T05:17:41;134.23;;;58.53;;
19691;SDS011;42748;50.016;19.890;2024-03-02T05:20:12;135.30;;;59.13;;
19691;SDS011;42748;50.016;19.890;2024-03-02T05:22:40;130.50;;;57.63;;
19691;SDS011;42748;50.016;19.890;2024-03-02T05:25:08;128.13;;;55.27;;
19691;SDS011;42748;50.016;19.890;2024-03-02T05:27:39;107.17;;;50.40;;
19691;SDS011;42748;50.016;19.890;2024-03-02T05:30:07;113.67;;;49.47;;
19691;SDS011;42748;50.016;19.890;2024-03-02T05:32:35;104.87;;;48.03;;
19691;SDS011;42748;50.016;19.890;2024-03-02T05:35:03;105.50;;;47.60;;
19691;SDS011;42748;50.016;19.890;2024-03-02T05:37:31;107.13;;;48.53;;
19691;SDS011;42748;50.016;19.890;2024-03-02T05:39:59;111.93;;;49.40;;
19691;SDS011;42748;50.016;19.890;2024-03-02T05:42:27;100.60;;;47.93;;
19691;SDS011;42748;50.016;19.890;2024-03-02T05:44:55;100.17;;;47.20;;
19691;SDS011;42748;50.016;19.890;2024-03-02T05:47:23;110.07;;;47.70;;
19691;SDS011;42748;50.016;19.890;2024-03-02T05:49:50;104.07;;;46.60;;
19691;SDS011;42748;50.016;19.890;2024-03-02T05:52:18;98.17;;;45.83;;
19691;SDS011;42748;50.016;19.890;2024-03-02T05:54:47;104.97;;;47.53;;
19691;SDS011;42748;50.016;19.890;2024-03-02T05:57:16;101.57;;;45.60;;
19691;SDS011;42748;50.016;19.890;2024-03-02T05:59:54;99.73;;;45.97;;
19691;SDS011;42748;50.016;19.890;2024-03-02T06:02:22;100.73;;;45.27;;
19691;SDS011;42748;50.016;19.890;2024-03-02T06:04:49;91.33;;;45.13;;
19691;SDS011;42748;50.016;19.890;2024-03-02T06:07:17;98.03;;;46.97;;
19691;SDS011;42748;50.016;19.890;2024-03-02T06:09:45;99.07;;;46.17;;
19691;SDS011;42748;50.016;19.890;2024-03-02T06:12:15;99.77;;;44.97;;
19691;SDS011;42748;50.016;19.890;2024-03-02T06:14:44;101.93;;;46.77;;
19691;SDS011;42748;50.016;19.890;2024-03-02T06:17:11;99.10;;;47.10;;
19691;SDS011;42748;50.016;19.890;2024-03-02T06:19:42;99.60;;;45.33;;
19691;SDS011;42748;50.016;19.890;2024-03-02T06:22:13;98.73;;;46.10;;
19691;SDS011;42748;50.016;19.890;2024-03-02T06:24:41;98.67;;;45.53;;
19691;SDS011;42748;50.016;19.890;2024-03-02T06:27:09;95.67;;;45.00;;
19691;SDS011;42748;50.016;19.890;2024-03-02T06:29:36;94.97;;;44.90;;
19691;SDS011;42748;50.016;19.890;2024-03-02T06:32:04;96.93;;;44.63;;
19691;SDS011;42748;50.016;19.890;2024-03-02T06:34:32;95.17;;;44.97;;
19691;SDS011;42748;50.016;19.890;2024-03-02T06:36:59;105.00;;;48.23;;
19691;SDS011;42748;50.016;19.890;2024-03-02T06:39:27;105.13;;;47.93;;
19691;SDS011;42748;50.016;19.890;2024-03-02T06:41:55;104.00;;;47.37;;
19691;SDS011;42748;50.016;19.890;2024-03-02T06:44:23;104.57;;;48.37;;
19691;SDS011;42748;50.016;19.890;2024-03-02T06:46:50;103.20;;;48.50;;
19691;SDS011;42748;50.016;19.890;2024-03-02T06:49:18;105.37;;;50.30;;
19691;SDS011;42748;50.016;19.890;2024-03-02T06:51:46;104.23;;;48.87;;
19691;SDS011;42748;50.016;19.890;2024-03-02T06:54:14;109.87;;;50.23;;
19691;SDS011;42748;50.016;19.890;2024-03-02T06:56:41;106.50;;;50.73;;
19691;SDS011;42748;50.016;19.890;2024-03-02T06:59:09;105.43;;;49.50;;
19691;SDS011;42748;50.016;19.890;2024-03-02T07:01:36;103.33;;;49.63;;
19691;SDS011;42748;50.016;19.890;2024-03-02T07:04:04;108.83;;;49.73;;
19691;SDS011;42748;50.016;19.890;2024-03-02T07:06:33;108.38;;;49.78;;
19691;SDS011;42748;50.016;19.890;2024-03-02T07:09:01;114.30;;;51.00;;
19691;SDS011;42748;50.016;19.890;2024-03-02T07:11:29;107.50;;;49.90;;
19691;SDS011;42748;50.016;19.890;2024-03-02T07:13:56;110.43;;;49.07;;
19691;SDS011;42748;50.016;19.890;2024-03-02T07:16:24;106.60;;;48.53;;
19691;SDS011;42748;50.016;19.890;2024-03-02T07:18:56;95.70;;;46.53;;
19691;SDS011;42748;50.016;19.890;2024-03-02T07:21:25;99.37;;;46.63;;
19691;SDS011;42748;50.016;19.890;2024-03-02T07:23:53;94.22;;;45.00;;
19691;SDS011;42748;50.016;19.890;2024-03-02T07:26:20;93.37;;;44.97;;
19691;SDS011;42748;50.016;19.890;2024-03-02T07:28:51;87.75;;;41.17;;
19691;SDS011;42748;50.016;19.890;2024-03-02T07:31:19;76.13;;;36.17;;
19691;SDS011;42748;50.016;19.890;2024-03-02T07:33:47;74.80;;;36.55;;
19691;SDS011;42748;50.016;19.890;2024-03-02T07:36:15;71.22;;;34.47;;
19691;SDS011;42748;50.016;19.890;2024-03-02T07:38:43;77.72;;;35.58;;
19691;SDS011;42748;50.016;19.890;2024-03-02T07:41:12;68.65;;;34.08;;
19691;SDS011;42748;50.016;19.890;2024-03-02T07:43:39;64.35;;;32.80;;
19691;SDS011;42748;50.016;19.890;2024-03-02T07:46:07;72.82;;;35.25;;
19691;SDS011;42748;50.016;19.890;2024-03-02T07:48:35;68.55;;;33.58;;
19691;SDS011;42748;50.016;19.890;2024-03-02T07:51:02;71.03;;;34.30;;
19691;SDS011;42748;50.016;19.890;2024-03-02T07:53:30;66.60;;;33.72;;
19691;SDS011;42748;50.016;19.890;2024-03-02T07:55:58;68.88;;;35.67;;
19691;SDS011;42748;50.016;19.890;2024-03-02T07:58:29;66.13;;;34.40;;
19691;SDS011;42748;50.016;19.890;2024-03-02T08:00:57;65.93;;;34.88;;
19691;SDS011;42748;50.016;19.890;2024-03-02T08:03:28;68.93;;;35.83;;
19691;SDS011;42748;50.016;19.890;2024-03-02T08:05:56;69.90;;;34.90;;
19691;SDS011;42748;50.016;19.890;2024-03-02T08:08:23;71.70;;;36.05;;
19691;SDS011;42748;50.016;19.890;2024-03-02T08:10:51;74.47;;;37.70;;
19691;SDS011;42748;50.016;19.890;2024-03-02T08:13:19;75.63;;;38.72;;
19691;SDS011;42748;50.016;19.890;2024-03-02T08:15:46;71.97;;;36.85;;
19691;SDS011;42748;50.016;19.890;2024-03-02T08:18:14;73.32;;;37.72;;
19691;SDS011;42748;50.016;19.890;2024-03-02T08:20:41;72.40;;;37.63;;
19691;SDS011;42748;50.016;19.890;2024-03-02T08:23:09;79.00;;;39.53;;
19691;SDS011;42748;50.016;19.890;2024-03-02T08:25:37;82.18;;;38.60;;
19691;SDS011;42748;50.016;19.890;2024-03-02T08:28:04;70.57;;;36.33;;
19691;SDS011;42748;50.016;19.890;2024-03-02T08:30:32;78.45;;;37.63;;
19691;SDS011;42748;50.016;19.890;2024-03-02T08:33:00;74.68;;;38.47;;
19691;SDS011;42748;50.016;19.890;2024-03-02T08:35:28;82.00;;;39.00;;
19691;SDS011;42748;50.016;19.890;2024-03-02T08:37:55;74.80;;;37.28;;
19691;SDS011;42748;50.016;19.890;2024-03-02T08:40:23;72.22;;;37.97;;
19691;SDS011;42748;50.016;19.890;2024-03-02T08:42:50;75.35;;;38.38;;
19691;SDS011;42748;50.016;19.890;2024-03-02T08:45:18;84.63;;;39.30;;
19691;SDS011;42748;50.016;19.890;2024-03-02T08:47:47;79.47;;;39.50;;
19691;SDS011;42748;50.016;19.890;2024-03-02T08:50:15;80.68;;;39.50;;
19691;SDS011;42748;50.016;19.890;2024-03-02T08:52:43;77.07;;;39.40;;
19691;SDS011;42748;50.016;19.890;2024-03-02T08:55:11;73.05;;;39.63;;
19691;SDS011;42748;50.016;19.890;2024-03-02T08:57:38;75.82;;;39.22;;
19691;SDS011;42748;50.016;19.890;2024-03-02T09:00:06;83.32;;;38.97;;
19691;SDS011;42748;50.016;19.890;2024-03-02T09:02:34;80.60;;;40.85;;
19691;SDS011;42748;50.016;19.890;2024-03-02T09:05:02;76.57;;;38.90;;
19691;SDS011;42748;50.016;19.890;2024-03-02T09:07:29;71.85;;;38.10;;
19691;SDS011;42748;50.016;19.890;2024-03-02T09:09:58;67.68;;;35.10;;
19691;SDS011;42748;50.016;19.890;2024-03-02T09:12:26;65.55;;;36.67;;
19691;SDS011;42748;50.016;19.890;2024-03-02T09:14:54;67.85;;;35.20;;
19691;SDS011;42748;50.016;19.890;2024-03-02T09:17:22;72.85;;;37.80;;
19691;SDS011;42748;50.016;19.890;2024-03-02T09:19:49;75.75;;;37.63;;
19691;SDS011;42748;50.016;19.890;2024-03-02T09:22:19;74.85;;;37.17;;
19691;SDS011;42748;50.016;19.890;2024-03-02T09:24:47;64.65;;;34.78;;
19691;SDS011;42748;50.016;19.890;2024-03-02T09:27:15;67.88;;;35.75;;
19691;SDS011;42748;50.016;19.890;2024-03-02T09:29:43;71.25;;;36.75;;
19691;SDS011;42748;50.016;19.890;2024-03-02T09:32:12;66.72;;;35.38;;
19691;SDS011;42748;50.016;19.890;2024-03-02T09:34:40;72.07;;;35.83;;
19691;SDS011;42748;50.016;19.890;2024-03-02T09:37:08;63.97;;;34.78;;
19691;SDS011;42748;50.016;19.890;2024-03-02T09:39:36;67.47;;;36.58;;
19691;SDS011;42748;50.016;19.890;2024-03-02T09:42:04;65.90;;;36.70;;
19691;SDS011;42748;50.016;19.890;2024-03-02T09:44:32;68.10;;;35.20;;
19691;SDS011;42748;50.016;19.890;2024-03-02T09:47:00;70.53;;;35.38;;
19691;SDS011;42748;50.016;19.890;2024-03-02T09:49:28;62.95;;;34.60;;
19691;SDS011;42748;50.016;19.890;2024-03-02T09:51:55;65.88;;;35.47;;
19691;SDS011;42748;50.016;19.890;2024-03-02T09:54:23;63.72;;;35.40;;
19691;SDS011;42748;50.016;19.890;2024-03-02T09:56:51;67.78;;;36.05;;
19691;SDS011;42748;50.016;19.890;2024-03-02T09:59:19;72.75;;;36.67;;
19691;SDS011;42748;50.016;19.890;2024-03-02T10:04:25;68.65;;;36.42;;
19691;SDS011;42748;50.016;19.890;2024-03-02T10:09:36;65.00;;;35.35;;
19691;SDS011;42748;50.016;19.890;2024-03-02T10:12:04;69.03;;;36.75;;
19691;SDS011;42748;50.016;19.890;2024-03-02T10:14:32;66.72;;;35.88;;
19691;SDS011;42748;50.016;19.890;2024-03-02T10:17:04;68.07;;;35.83;;
19691;SDS011;42748;50.016;19.890;2024-03-02T10:19:32;73.03;;;38.25;;
19691;SDS011;42748;50.016;19.890;2024-03-02T10:22:01;82.03;;;38.63;;
19691;SDS011;42748;50.016;19.890;2024-03-02T10:24:38;70.78;;;37.28;;
19691;SDS011;42748;50.016;19.890;2024-03-02T10:27:06;69.32;;;37.60;;
19691;SDS011;42748;50.016;19.890;2024-03-02T10:29:39;75.07;;;39.85;;
19691;SDS011;42748;50.016;19.890;2024-03-02T10:32:10;76.30;;;40.65;;
19691;SDS011;42748;50.016;19.890;2024-03-02T10:34:42;72.43;;;39.72;;
19691;SDS011;42748;50.016;19.890;2024-03-02T10:37:10;83.70;;;42.13;;
19691;SDS011;42748;50.016;19.890;2024-03-02T10:39:39;81.55;;;43.78;;
19691;SDS011;42748;50.016;19.890;2024-03-02T10:42:08;83.22;;;43.25;;
19691;SDS011;42748;50.016;19.890;2024-03-02T10:44:36;81.63;;;43.67;;
19691;SDS011;42748;50.016;19.890;2024-03-02T10:47:04;88.80;;;43.88;;
19691;SDS011;42748;50.016;19.890;2024-03-02T10:49:32;80.47;;;43.60;;
19691;SDS011;42748;50.016;19.890;2024-03-02T10:52:00;84.30;;;44.47;;
19691;SDS011;42748;50.016;19.890;2024-03-02T10:54:29;80.38;;;44.28;;
19691;SDS011;42748;50.016;19.890;2024-03-02T10:57:04;79.47;;;44.33;;
19691;SDS011;42748;50.016;19.890;2024-03-02T10:59:33;90.95;;;45.67;;
19691;SDS011;42748;50.016;19.890;2024-03-02T11:02:02;81.70;;;44.05;;
19691;SDS011;42748;50.016;19.890;2024-03-02T11:04:32;85.07;;;44.75;;
19691;SDS011;42748;50.016;19.890;2024-03-02T11:07:02;96.57;;;47.33;;
19691;SDS011;42748;50.016;19.890;2024-03-02T11:09:33;93.45;;;51.22;;
19691;SDS011;42748;50.016;19.890;2024-03-02T11:12:19;92.72;;;50.35;;
19691;SDS011;42748;50.016;19.890;2024-03-02T11:14:47;92.47;;;50.47;;
19691;SDS011;42748;50.016;19.890;2024-03-02T11:17:14;90.13;;;48.03;;
19691;SDS011;42748;50.016;19.890;2024-03-02T11:19:42;87.20;;;46.38;;
19691;SDS011;42748;50.016;19.890;2024-03-02T11:22:10;79.35;;;46.13;;
19691;SDS011;42748;50.016;19.890;2024-03-02T11:24:39;77.95;;;42.97;;
19691;SDS011;42748;50.016;19.890;2024-03-02T11:27:06;79.45;;;44.05;;
19691;SDS011;42748;50.016;19.890;2024-03-02T11:32:16;82.47;;;44.90;;
19691;SDS011;42748;50.016;19.890;2024-03-02T11:34:47;78.22;;;44.88;;
19691;SDS011;42748;50.016;19.890;2024-03-02T11:37:16;77.60;;;43.17;;
19691;SDS011;42748;50.016;19.890;2024-03-02T11:39:48;71.13;;;40.05;;
19691;SDS011;42748;50.016;19.890;2024-03-02T11:42:17;77.47;;;42.42;;
19691;SDS011;42748;50.016;19.890;2024-03-02T11:44:45;79.97;;;42.10;;
19691;SDS011;42748;50.016;19.890;2024-03-02T11:47:14;78.47;;;42.95;;
19691;SDS011;42748;50.016;19.890;2024-03-02T11:49:42;73.97;;;38.83;;
19691;SDS011;42748;50.016;19.890;2024-03-02T11:52:15;65.97;;;37.00;;
19691;SDS011;42748;50.016;19.890;2024-03-02T11:54:46;70.90;;;39.10;;
19691;SDS011;42748;50.016;19.890;2024-03-02T11:57:16;69.30;;;38.22;;
19691;SDS011;42748;50.016;19.890;2024-03-02T11:59:44;71.70;;;38.58;;
19691;SDS011;42748;50.016;19.890;2024-03-02T12:02:15;72.13;;;38.30;;
19691;SDS011;42748;50.016;19.890;2024-03-02T12:04:44;71.90;;;38.95;;
19691;SDS011;42748;50.016;19.890;2024-03-02T12:07:12;69.15;;;38.15;;
19691;SDS011;42748;50.016;19.890;2024-03-02T12:09:39;67.68;;;37.55;;
19691;SDS011;42748;50.016;19.890;2024-03-02T12:12:08;67.03;;;37.22;;
19691;SDS011;42748;50.016;19.890;2024-03-02T12:14:36;64.32;;;36.05;;
19691;SDS011;42748;50.016;19.890;2024-03-02T12:17:05;59.03;;;33.85;;
19691;SDS011;42748;50.016;19.890;2024-03-02T12:19:33;60.03;;;31.77;;
19691;SDS011;42748;50.016;19.890;2024-03-02T12:22:01;63.05;;;33.60;;
19691;SDS011;42748;50.016;19.890;2024-03-02T12:24:29;61.85;;;32.50;;
19691;SDS011;42748;50.016;19.890;2024-03-02T12:26:57;63.28;;;33.35;;
19691;SDS011;42748;50.016;19.890;2024-03-02T12:29:25;59.42;;;32.33;;
19691;SDS011;42748;50.016;19.890;2024-03-02T12:31:53;57.45;;;31.83;;
19691;SDS011;42748;50.016;19.890;2024-03-02T12:34:21;54.63;;;30.38;;
19691;SDS011;42748;50.016;19.890;2024-03-02T12:36:50;55.80;;;30.30;;
19691;SDS011;42748;50.016;19.890;2024-03-02T12:39:20;58.38;;;31.75;;
19691;SDS011;42748;50.016;19.890;2024-03-02T12:41:50;56.30;;;31.17;;
19691;SDS011;42748;50.016;19.890;2024-03-02T12:44:17;58.20;;;31.05;;
19691;SDS011;42748;50.016;19.890;2024-03-02T12:46:46;59.08;;;32.42;;
19691;SDS011;42748;50.016;19.890;2024-03-02T12:49:14;59.85;;;31.92;;
19691;SDS011;42748;50.016;19.890;2024-03-02T12:51:42;56.78;;;31.30;;
19691;SDS011;42748;50.016;19.890;2024-03-02T12:54:11;57.25;;;30.48;;
19691;SDS011;42748;50.016;19.890;2024-03-02T12:56:40;57.60;;;31.10;;
19691;SDS011;42748;50.016;19.890;2024-03-02T12:59:18;55.63;;;30.63;;
19691;SDS011;42748;50.016;19.890;2024-03-02T13:01:54;53.85;;;30.27;;
19691;SDS011;42748;50.016;19.890;2024-03-02T13:04:24;55.42;;;28.85;;
19691;SDS011;42748;50.016;19.890;2024-03-02T13:06:52;50.78;;;29.50;;
19691;SDS011;42748;50.016;19.890;2024-03-02T13:09:20;54.20;;;29.42;;
19691;SDS011;42748;50.016;19.890;2024-03-02T13:11:48;54.25;;;29.23;;
19691;SDS011;42748;50.016;19.890;2024-03-02T13:14:16;55.03;;;30.27;;
19691;SDS011;42748;50.016;19.890;2024-03-02T13:16:44;52.85;;;30.15;;
19691;SDS011;42748;50.016;19.890;2024-03-02T13:19:14;54.58;;;30.85;;
19691;SDS011;42748;50.016;19.890;2024-03-02T13:21:42;55.80;;;29.48;;
19691;SDS011;42748;50.016;19.890;2024-03-02T13:24:09;54.35;;;30.00;;
19691;SDS011;42748;50.016;19.890;2024-03-02T13:26:37;54.17;;;30.10;;
19691;SDS011;42748;50.016;19.890;2024-03-02T13:29:06;51.38;;;29.58;;
19691;SDS011;42748;50.016;19.890;2024-03-02T13:31:34;53.90;;;28.70;;
19691;SDS011;42748;50.016;19.890;2024-03-02T13:34:02;54.22;;;28.40;;
19691;SDS011;42748;50.016;19.890;2024-03-02T13:36:29;51.00;;;28.60;;
19691;SDS011;42748;50.016;19.890;2024-03-02T13:38:57;51.33;;;27.60;;
19691;SDS011;42748;50.016;19.890;2024-03-02T13:41:25;50.22;;;27.80;;
19691;SDS011;42748;50.016;19.890;2024-03-02T13:43:52;51.78;;;27.40;;
19691;SDS011;42748;50.016;19.890;2024-03-02T13:46:20;50.75;;;28.05;;
19691;SDS011;42748;50.016;19.890;2024-03-02T13:48:48;50.67;;;27.85;;
19691;SDS011;42748;50.016;19.890;2024-03-02T13:51:18;52.47;;;27.35;;
19691;SDS011;42748;50.016;19.890;2024-03-02T13:53:45;48.92;;;27.70;;
19691;SDS011;42748;50.016;19.890;2024-03-02T13:56:13;50.67;;;27.27;;
19691;SDS011;42748;50.016;19.890;2024-03-02T13:58:42;52.22;;;28.10;;
19691;SDS011;42748;50.016;19.890;2024-03-02T14:01:10;49.25;;;26.98;;
19691;SDS011;42748;50.016;19.890;2024-03-02T14:03:37;53.60;;;27.48;;
19691;SDS011;42748;50.016;19.890;2024-03-02T14:06:05;51.63;;;28.35;;
19691;SDS011;42748;50.016;19.890;2024-03-02T14:08:33;50.58;;;27.98;;
19691;SDS011;42748;50.016;19.890;2024-03-02T14:11:02;52.67;;;27.88;;
19691;SDS011;42748;50.016;19.890;2024-03-02T14:13:30;56.40;;;28.58;;
19691;SDS011;42748;50.016;19.890;2024-03-02T14:15:58;48.63;;;27.73;;
19691;SDS011;42748;50.016;19.890;2024-03-02T14:18:25;50.83;;;25.90;;
19691;SDS011;42748;50.016;19.890;2024-03-02T14:20:53;46.70;;;26.00;;
19691;SDS011;42748;50.016;19.890;2024-03-02T14:23:23;55.70;;;26.77;;
19691;SDS011;42748;50.016;19.890;2024-03-02T14:25:52;53.00;;;28.27;;